RYR496E LEZL-GCFV
Flight info
| Callsign | RYR496E |
|---|---|
| Flight time | 2h 0m |
| Altitude | 35000 |
| Route | CLANA N857 KORNO UN857 TERTO |
| Aircraft | B738/M-SDE2E3FGHIRWXY/LB1 |
Departure
| Time | 2026-05-04 10:08 |
|---|---|
| Airport | Seville Airport (LEZL) |
Arrival
| Time | 2026-05-04 12:09 |
|---|---|
| Airport | Fuerteventura Airport (GCFV) |
| Time | Latitude | Longitude | Altitude | Speed | Heading |
|---|---|---|---|---|---|
| 2026-05-04 09:30 | 37.42462 | -5.89685 | 94 ft | 0 kts | 98° |
| 2026-05-04 10:00 | 37.42425 | -5.89685 | 94 ft | 7 kts | 189° |
| 2026-05-04 10:00 | 37.42367 | -5.89653 | 93 ft | 12 kts | 136° |
| 2026-05-04 10:02 | 37.41979 | -5.89305 | 98 ft | 9 kts | 90° |
| 2026-05-04 10:04 | 37.41985 | -5.88795 | 102 ft | 7 kts | 89° |
| 2026-05-04 10:04 | 37.41985 | -5.88731 | 102 ft | 7 kts | 89° |
| 2026-05-04 10:04 | 37.41985 | -5.88669 | 103 ft | 7 kts | 89° |
| 2026-05-04 10:04 | 37.41985 | -5.88608 | 103 ft | 7 kts | 90° |
| 2026-05-04 10:05 | 37.41986 | -5.88537 | 103 ft | 10 kts | 90° |
| 2026-05-04 10:05 | 37.41986 | -5.88426 | 104 ft | 15 kts | 90° |
| 2026-05-04 10:05 | 37.41986 | -5.88270 | 105 ft | 20 kts | 89° |
| 2026-05-04 10:05 | 37.41987 | -5.88094 | 105 ft | 17 kts | 90° |
| 2026-05-04 10:06 | 37.41987 | -5.87944 | 106 ft | 17 kts | 89° |
| 2026-05-04 10:06 | 37.41988 | -5.87800 | 107 ft | 16 kts | 89° |
| 2026-05-04 10:06 | 37.41988 | -5.87661 | 108 ft | 16 kts | 89° |
| 2026-05-04 10:08 | 37.41799 | -5.87692 | 112 ft | 35 kts | 270° |
| 2026-05-04 10:08 | 37.41797 | -5.88325 | 105 ft | 108 kts | 270° |
| 2026-05-04 10:08 | 37.41794 | -5.89527 | 150 ft | 161 kts | 270° |
| 2026-05-04 10:08 | 37.41798 | -5.90980 | 791 ft | 170 kts | 270° |
| 2026-05-04 10:09 | 37.42103 | -5.92425 | 1531 ft | 181 kts | 304° |
| 2026-05-04 10:09 | 37.43042 | -5.93668 | 1894 ft | 210 kts | 307° |
| 2026-05-04 10:09 | 37.43788 | -5.95336 | 2250 ft | 226 kts | 287° |
| 2026-05-04 10:09 | 37.44034 | -5.97300 | 2881 ft | 233 kts | 273° |
| 2026-05-04 10:10 | 37.44117 | -5.99425 | 3415 ft | 251 kts | 272° |
| 2026-05-04 10:10 | 37.44207 | -6.01634 | 4318 ft | 253 kts | 272° |
| 2026-05-04 10:10 | 37.43964 | -6.03788 | 5254 ft | 255 kts | 249° |
| 2026-05-04 10:10 | 37.42989 | -6.05664 | 6154 ft | 261 kts | 225° |
| 2026-05-04 10:11 | 37.41447 | -6.06889 | 7038 ft | 267 kts | 202° |
| 2026-05-04 10:11 | 37.39587 | -6.07224 | 7864 ft | 276 kts | 182° |
| 2026-05-04 10:11 | 37.37656 | -6.07104 | 8694 ft | 281 kts | 179° |
| 2026-05-04 10:11 | 37.35698 | -6.06925 | 9547 ft | 284 kts | 179° |
| 2026-05-04 10:12 | 37.33715 | -6.06739 | 10318 ft | 289 kts | 180° |
| 2026-05-04 10:12 | 37.31632 | -6.06558 | 10591 ft | 312 kts | 180° |
| 2026-05-04 10:12 | 37.29377 | -6.06374 | 10789 ft | 336 kts | 180° |
| 2026-05-04 10:12 | 37.26983 | -6.06180 | 11172 ft | 351 kts | 180° |
| 2026-05-04 10:13 | 37.24522 | -6.05981 | 11863 ft | 356 kts | 180° |
| 2026-05-04 10:13 | 37.22044 | -6.05784 | 12654 ft | 358 kts | 181° |
| 2026-05-04 10:13 | 37.19547 | -6.05589 | 13407 ft | 361 kts | 181° |
| 2026-05-04 10:13 | 37.17032 | -6.05452 | 14105 ft | 362 kts | 188° |
| 2026-05-04 10:14 | 37.14610 | -6.06142 | 14741 ft | 355 kts | 207° |
| 2026-05-04 10:14 | 37.12526 | -6.07726 | 15456 ft | 349 kts | 222° |
| 2026-05-04 10:16 | 36.99224 | -6.21770 | 19815 ft | 368 kts | 224° |
| 2026-05-04 10:16 | 36.97270 | -6.23849 | 20376 ft | 370 kts | 224° |
| 2026-05-04 10:16 | 36.95305 | -6.25940 | 20926 ft | 372 kts | 224° |
| 2026-05-04 10:16 | 36.93327 | -6.28042 | 21456 ft | 375 kts | 224° |
| 2026-05-04 10:17 | 36.91334 | -6.30158 | 21983 ft | 377 kts | 224° |
| 2026-05-04 10:17 | 36.89326 | -6.32286 | 22516 ft | 379 kts | 224° |
| 2026-05-04 10:19 | 36.74972 | -6.47445 | 25631 ft | 393 kts | 224° |
| 2026-05-04 10:19 | 36.72880 | -6.49648 | 26025 ft | 394 kts | 224° |
| 2026-05-04 10:19 | 36.70777 | -6.51861 | 26411 ft | 396 kts | 224° |
| 2026-05-04 10:19 | 36.68667 | -6.54080 | 26791 ft | 397 kts | 224° |
| 2026-05-04 10:20 | 36.66544 | -6.56310 | 27172 ft | 399 kts | 224° |
| 2026-05-04 10:20 | 36.64420 | -6.58540 | 27542 ft | 400 kts | 224° |
| 2026-05-04 10:20 | 36.62289 | -6.60776 | 27895 ft | 402 kts | 224° |
| 2026-05-04 10:20 | 36.60148 | -6.63021 | 28246 ft | 403 kts | 224° |
| 2026-05-04 10:21 | 36.58001 | -6.65270 | 28587 ft | 404 kts | 224° |
| 2026-05-04 10:21 | 36.55845 | -6.67528 | 28919 ft | 406 kts | 225° |
| 2026-05-04 10:21 | 36.53682 | -6.69791 | 29241 ft | 407 kts | 225° |
| 2026-05-04 10:21 | 36.51509 | -6.72062 | 29593 ft | 408 kts | 225° |
| 2026-05-04 10:22 | 36.47177 | -6.76548 | 30575 ft | 401 kts | 225° |
| 2026-05-04 10:22 | 36.45036 | -6.78749 | 30995 ft | 399 kts | 225° |
| 2026-05-04 10:22 | 36.42898 | -6.80946 | 31321 ft | 398 kts | 225° |
| 2026-05-04 10:23 | 36.40767 | -6.83137 | 31641 ft | 398 kts | 225° |
| 2026-05-04 10:23 | 36.38641 | -6.85322 | 32014 ft | 396 kts | 225° |
| 2026-05-04 10:25 | 36.23968 | -7.00370 | 34336 ft | 387 kts | 226° |
| 2026-05-04 10:25 | 36.21890 | -7.02495 | 34554 ft | 388 kts | 226° |
| 2026-05-04 10:25 | 36.19812 | -7.04620 | 34761 ft | 388 kts | 226° |
| 2026-05-04 10:25 | 36.17729 | -7.06747 | 34985 ft | 388 kts | 226° |
| 2026-05-04 10:26 | 36.15645 | -7.08876 | 35107 ft | 391 kts | 226° |
| 2026-05-04 10:26 | 36.11421 | -7.13185 | 35103 ft | 394 kts | 226° |
| 2026-05-04 10:27 | 36.07221 | -7.17456 | 35107 ft | 388 kts | 226° |
| 2026-05-04 10:27 | 36.03071 | -7.21673 | 35115 ft | 386 kts | 226° |
| 2026-05-04 10:28 | 35.98984 | -7.25824 | 35123 ft | 385 kts | 226° |
| 2026-05-04 10:28 | 35.94875 | -7.29990 | 35119 ft | 384 kts | 226° |
| 2026-05-04 10:29 | 35.90784 | -7.34131 | 35113 ft | 378 kts | 226° |
| 2026-05-04 10:29 | 35.86724 | -7.38240 | 35131 ft | 377 kts | 226° |
| 2026-05-04 10:30 | 35.82674 | -7.42327 | 35123 ft | 376 kts | 226° |
| 2026-05-04 10:30 | 35.78610 | -7.46388 | 35120 ft | 376 kts | 225° |
| 2026-05-04 10:31 | 35.74540 | -7.50441 | 35125 ft | 377 kts | 225° |
| 2026-05-04 10:32 | 35.60882 | -7.64024 | 35128 ft | 381 kts | 225° |
| 2026-05-04 10:33 | 35.56746 | -7.68126 | 35132 ft | 383 kts | 225° |
| 2026-05-04 10:33 | 35.52593 | -7.72239 | 35130 ft | 384 kts | 225° |
| 2026-05-04 10:34 | 35.48432 | -7.76355 | 35128 ft | 384 kts | 225° |
| 2026-05-04 10:34 | 35.44260 | -7.80476 | 35128 ft | 385 kts | 225° |
| 2026-05-04 10:35 | 35.40093 | -7.84593 | 35128 ft | 384 kts | 225° |
| 2026-05-04 10:35 | 35.35956 | -7.88724 | 35126 ft | 383 kts | 226° |
| 2026-05-04 10:36 | 35.31828 | -7.92853 | 35126 ft | 383 kts | 226° |
| 2026-05-04 10:36 | 35.27708 | -7.96965 | 35131 ft | 382 kts | 226° |
| 2026-05-04 10:37 | 35.23588 | -8.01070 | 35132 ft | 381 kts | 226° |
| 2026-05-04 10:37 | 35.19501 | -8.05136 | 35139 ft | 381 kts | 226° |
| 2026-05-04 10:39 | 35.05124 | -8.19395 | 35140 ft | 380 kts | 226° |
| 2026-05-04 10:40 | 35.01019 | -8.23453 | 35140 ft | 379 kts | 226° |
| 2026-05-04 10:40 | 34.96988 | -8.27433 | 35137 ft | 379 kts | 226° |
| 2026-05-04 10:41 | 34.92887 | -8.31478 | 35141 ft | 379 kts | 226° |
| 2026-05-04 10:41 | 34.88782 | -8.35521 | 35137 ft | 379 kts | 226° |
| 2026-05-04 10:42 | 34.84676 | -8.39560 | 35142 ft | 379 kts | 226° |
| 2026-05-04 10:42 | 34.80567 | -8.43596 | 35141 ft | 379 kts | 226° |
| 2026-05-04 10:43 | 34.76456 | -8.47628 | 35141 ft | 380 kts | 226° |
| 2026-05-04 10:45 | 34.59983 | -8.63735 | 35139 ft | 380 kts | 226° |
| 2026-05-04 10:45 | 34.55888 | -8.67727 | 35142 ft | 380 kts | 226° |
| 2026-05-04 10:46 | 34.51766 | -8.71740 | 35143 ft | 380 kts | 225° |
| 2026-05-04 10:46 | 34.47638 | -8.75754 | 35137 ft | 380 kts | 225° |
| 2026-05-04 10:47 | 34.43512 | -8.79757 | 35140 ft | 380 kts | 225° |
| 2026-05-04 10:47 | 34.39369 | -8.83744 | 35142 ft | 380 kts | 225° |
| 2026-05-04 10:49 | 34.22761 | -8.99669 | 35143 ft | 381 kts | 225° |
| 2026-05-04 10:50 | 34.18606 | -9.03643 | 35142 ft | 381 kts | 225° |
| 2026-05-04 10:52 | 34.01955 | -9.19517 | 35142 ft | 383 kts | 225° |
| 2026-05-04 10:52 | 33.97771 | -9.23493 | 35141 ft | 383 kts | 225° |
| 2026-05-04 10:54 | 33.81009 | -9.39370 | 35139 ft | 384 kts | 224° |
| 2026-05-04 10:56 | 33.64139 | -9.55266 | 35139 ft | 386 kts | 224° |
| 2026-05-04 10:57 | 33.59912 | -9.59238 | 35142 ft | 386 kts | 224° |
| 2026-05-04 10:57 | 33.55710 | -9.63180 | 35140 ft | 386 kts | 224° |
| 2026-05-04 10:58 | 33.51450 | -9.67170 | 35144 ft | 386 kts | 224° |
| 2026-05-04 10:58 | 33.47241 | -9.71110 | 35140 ft | 386 kts | 224° |
| 2026-05-04 10:59 | 33.42998 | -9.75075 | 35141 ft | 387 kts | 224° |
| 2026-05-04 10:59 | 33.38759 | -9.79031 | 35140 ft | 387 kts | 224° |
| 2026-05-04 11:00 | 33.34515 | -9.82987 | 35139 ft | 387 kts | 224° |
| 2026-05-04 11:02 | 33.17533 | -9.98768 | 35141 ft | 387 kts | 224° |
| 2026-05-04 11:05 | 32.85644 | -10.28180 | 35135 ft | 388 kts | 223° |
| 2026-05-04 11:06 | 32.81359 | -10.32111 | 35135 ft | 389 kts | 223° |
| 2026-05-04 11:06 | 32.77070 | -10.36041 | 35138 ft | 389 kts | 223° |
| 2026-05-04 11:10 | 32.46890 | -10.63555 | 35131 ft | 392 kts | 222° |
| 2026-05-04 11:12 | 32.29523 | -10.79280 | 35130 ft | 393 kts | 222° |
| 2026-05-04 11:12 | 32.25167 | -10.83211 | 35127 ft | 394 kts | 222° |
| 2026-05-04 11:13 | 32.20812 | -10.87138 | 35130 ft | 394 kts | 222° |
| 2026-05-04 11:13 | 32.16485 | -10.91034 | 35128 ft | 394 kts | 222° |
| 2026-05-04 11:14 | 32.12124 | -10.94956 | 35132 ft | 394 kts | 222° |
| 2026-05-04 11:16 | 31.94708 | -11.10572 | 35130 ft | 394 kts | 222° |
| 2026-05-04 11:16 | 31.90368 | -11.14452 | 35129 ft | 394 kts | 221° |
| 2026-05-04 11:17 | 31.85999 | -11.18352 | 35129 ft | 394 kts | 221° |
| 2026-05-04 11:19 | 31.68505 | -11.33938 | 35130 ft | 395 kts | 221° |
| 2026-05-04 11:19 | 31.64128 | -11.37834 | 35124 ft | 395 kts | 221° |
| 2026-05-04 11:20 | 31.59749 | -11.41728 | 35125 ft | 395 kts | 221° |
| 2026-05-04 11:20 | 31.55368 | -11.45619 | 35128 ft | 395 kts | 221° |
| 2026-05-04 11:22 | 31.37857 | -11.61123 | 35126 ft | 395 kts | 221° |
| 2026-05-04 11:23 | 31.34180 | -11.64368 | 35130 ft | 395 kts | 221° |
| 2026-05-04 11:25 | 31.18847 | -11.77870 | 35127 ft | 395 kts | 221° |
| 2026-05-04 11:25 | 31.14457 | -11.81724 | 35131 ft | 395 kts | 221° |
| 2026-05-04 11:27 | 30.94760 | -11.98966 | 35121 ft | 394 kts | 221° |
| 2026-05-04 11:28 | 30.90377 | -12.02790 | 35128 ft | 393 kts | 221° |
| 2026-05-04 11:28 | 30.86023 | -12.06585 | 35118 ft | 393 kts | 221° |
| 2026-05-04 11:29 | 30.81634 | -12.10405 | 35131 ft | 393 kts | 222° |
| 2026-05-04 11:29 | 30.77258 | -12.14210 | 35131 ft | 393 kts | 222° |
| 2026-05-04 11:33 | 30.46738 | -12.40618 | 35124 ft | 390 kts | 222° |
| 2026-05-04 11:33 | 30.42379 | -12.44359 | 35123 ft | 389 kts | 222° |
| 2026-05-04 11:34 | 30.38028 | -12.48090 | 35127 ft | 389 kts | 222° |
| 2026-05-04 11:34 | 30.33675 | -12.51819 | 35138 ft | 388 kts | 223° |
| 2026-05-04 11:35 | 30.29347 | -12.55523 | 35126 ft | 386 kts | 223° |
| 2026-05-04 11:35 | 30.25051 | -12.59196 | 35120 ft | 382 kts | 223° |
| 2026-05-04 11:36 | 30.20788 | -12.62837 | 35118 ft | 379 kts | 223° |
| 2026-05-04 11:36 | 30.16558 | -12.66448 | 35121 ft | 377 kts | 223° |
| 2026-05-04 11:37 | 30.12350 | -12.70036 | 35125 ft | 375 kts | 223° |
| 2026-05-04 11:37 | 30.07995 | -12.73394 | 35130 ft | 379 kts | 217° |
| 2026-05-04 11:38 | 30.03353 | -12.76328 | 35129 ft | 381 kts | 216° |
| 2026-05-04 11:38 | 29.98765 | -12.79189 | 35129 ft | 381 kts | 217° |
| 2026-05-04 11:39 | 29.94111 | -12.82131 | 35126 ft | 382 kts | 217° |
| 2026-05-04 11:40 | 29.80628 | -12.90717 | 35101 ft | 364 kts | 217° |
| 2026-05-04 11:41 | 29.78409 | -12.92135 | 34982 ft | 368 kts | 217° |
| 2026-05-04 11:41 | 29.76165 | -12.93564 | 34725 ft | 365 kts | 217° |
| 2026-05-04 11:41 | 29.73954 | -12.94964 | 34455 ft | 361 kts | 217° |
| 2026-05-04 11:41 | 29.71773 | -12.96346 | 34226 ft | 355 kts | 217° |
| 2026-05-04 11:42 | 29.69619 | -12.97712 | 33836 ft | 352 kts | 217° |
| 2026-05-04 11:42 | 29.67486 | -12.99066 | 33454 ft | 348 kts | 217° |
| 2026-05-04 11:42 | 29.65373 | -13.00408 | 33080 ft | 345 kts | 217° |
| 2026-05-04 11:42 | 29.63308 | -13.01720 | 32717 ft | 341 kts | 217° |
| 2026-05-04 11:43 | 29.61232 | -13.03039 | 32363 ft | 342 kts | 217° |
| 2026-05-04 11:43 | 29.59127 | -13.04381 | 32008 ft | 350 kts | 217° |
| 2026-05-04 11:43 | 29.56994 | -13.05737 | 31626 ft | 350 kts | 216° |
| 2026-05-04 11:43 | 29.54868 | -13.07083 | 31250 ft | 348 kts | 216° |
| 2026-05-04 11:44 | 29.52755 | -13.08419 | 30872 ft | 346 kts | 216° |
| 2026-05-04 11:44 | 29.50655 | -13.09747 | 30514 ft | 344 kts | 216° |
| 2026-05-04 11:44 | 29.48564 | -13.11070 | 30153 ft | 342 kts | 216° |
| 2026-05-04 11:44 | 29.46487 | -13.12384 | 29722 ft | 340 kts | 216° |
| 2026-05-04 11:45 | 29.44421 | -13.13690 | 29322 ft | 337 kts | 216° |
| 2026-05-04 11:45 | 29.42376 | -13.14983 | 28939 ft | 334 kts | 216° |
| 2026-05-04 11:45 | 29.40349 | -13.16264 | 28562 ft | 331 kts | 216° |
| 2026-05-04 11:45 | 29.38332 | -13.17537 | 28190 ft | 330 kts | 216° |
| 2026-05-04 11:46 | 29.36352 | -13.18785 | 27831 ft | 328 kts | 215° |
| 2026-05-04 11:46 | 29.34318 | -13.19968 | 27473 ft | 329 kts | 213° |
| 2026-05-04 11:46 | 29.32249 | -13.21099 | 27113 ft | 331 kts | 212° |
| 2026-05-04 11:46 | 29.30163 | -13.22227 | 26750 ft | 331 kts | 212° |
| 2026-05-04 11:47 | 29.28084 | -13.23353 | 26383 ft | 329 kts | 212° |
| 2026-05-04 11:47 | 29.26023 | -13.24477 | 26021 ft | 327 kts | 212° |
| 2026-05-04 11:47 | 29.23975 | -13.25599 | 25668 ft | 325 kts | 212° |
| 2026-05-04 11:47 | 29.21942 | -13.26714 | 25312 ft | 323 kts | 212° |
| 2026-05-04 11:48 | 29.19915 | -13.27826 | 24919 ft | 323 kts | 212° |
| 2026-05-04 11:48 | 29.17889 | -13.28936 | 24531 ft | 323 kts | 212° |
| 2026-05-04 11:48 | 29.15861 | -13.30046 | 24114 ft | 323 kts | 212° |
| 2026-05-04 11:48 | 29.13833 | -13.31157 | 23709 ft | 324 kts | 212° |
| 2026-05-04 11:49 | 29.11801 | -13.32269 | 23241 ft | 324 kts | 212° |
| 2026-05-04 11:49 | 29.09772 | -13.33378 | 22811 ft | 323 kts | 212° |
| 2026-05-04 11:49 | 29.08717 | -13.33955 | 22592 ft | 322 kts | 212° |
| 2026-05-04 11:49 | 29.06796 | -13.35005 | 22199 ft | 321 kts | 212° |
| 2026-05-04 11:50 | 29.04785 | -13.36103 | 21795 ft | 320 kts | 212° |
| 2026-05-04 11:50 | 29.02782 | -13.37197 | 21400 ft | 319 kts | 212° |
| 2026-05-04 11:50 | 29.00784 | -13.38288 | 21004 ft | 318 kts | 211° |
| 2026-05-04 11:50 | 28.98792 | -13.39375 | 20615 ft | 317 kts | 211° |
| 2026-05-04 11:51 | 28.96805 | -13.40459 | 20222 ft | 316 kts | 211° |
| 2026-05-04 11:51 | 28.94818 | -13.41543 | 19832 ft | 316 kts | 211° |
| 2026-05-04 11:51 | 28.92834 | -13.42625 | 19441 ft | 316 kts | 211° |
| 2026-05-04 11:51 | 28.90849 | -13.43707 | 19045 ft | 316 kts | 211° |
| 2026-05-04 11:52 | 28.88862 | -13.44790 | 18652 ft | 317 kts | 211° |
| 2026-05-04 11:52 | 28.86868 | -13.45876 | 18218 ft | 318 kts | 211° |
| 2026-05-04 11:52 | 28.84871 | -13.46962 | 17792 ft | 317 kts | 211° |
| 2026-05-04 11:52 | 28.82882 | -13.48044 | 17377 ft | 317 kts | 211° |
| 2026-05-04 11:53 | 28.80895 | -13.49124 | 16968 ft | 316 kts | 211° |
| 2026-05-04 11:53 | 28.78943 | -13.50184 | 16584 ft | 315 kts | 211° |
| 2026-05-04 11:53 | 28.76968 | -13.51257 | 16192 ft | 314 kts | 211° |
| 2026-05-04 11:53 | 28.74973 | -13.52341 | 15802 ft | 313 kts | 211° |
| 2026-05-04 11:55 | 28.61392 | -13.59705 | 13043 ft | 310 kts | 210° |
| 2026-05-04 11:55 | 28.59463 | -13.60750 | 12649 ft | 309 kts | 210° |
| 2026-05-04 11:56 | 28.57528 | -13.61797 | 12264 ft | 307 kts | 210° |
| 2026-05-04 11:56 | 28.55598 | -13.62840 | 11880 ft | 306 kts | 210° |
| 2026-05-04 11:56 | 28.53676 | -13.63879 | 11490 ft | 305 kts | 210° |
| 2026-05-04 11:56 | 28.51745 | -13.64876 | 11120 ft | 305 kts | 208° |
| 2026-05-04 11:57 | 28.49795 | -13.65822 | 10742 ft | 304 kts | 207° |
| 2026-05-04 11:57 | 28.47846 | -13.66764 | 10372 ft | 304 kts | 207° |
| 2026-05-04 11:57 | 28.45842 | -13.67544 | 10008 ft | 308 kts | 193° |
| 2026-05-04 11:57 | 28.43736 | -13.67565 | 10043 ft | 299 kts | 179° |
| 2026-05-04 11:58 | 28.41707 | -13.67240 | 9984 ft | 289 kts | 176° |
| 2026-05-04 11:58 | 28.39746 | -13.66883 | 9828 ft | 282 kts | 176° |
| 2026-05-04 11:58 | 28.37808 | -13.66550 | 9525 ft | 281 kts | 176° |
| 2026-05-04 11:58 | 28.35896 | -13.66198 | 9341 ft | 277 kts | 170° |
| 2026-05-04 11:59 | 28.34154 | -13.65312 | 9171 ft | 278 kts | 154° |
| 2026-05-04 11:59 | 28.32484 | -13.64229 | 8910 ft | 276 kts | 154° |
| 2026-05-04 11:59 | 28.30808 | -13.63163 | 8613 ft | 276 kts | 155° |
| 2026-05-04 11:59 | 28.29132 | -13.62111 | 8343 ft | 274 kts | 155° |
| 2026-05-04 12:00 | 28.27371 | -13.61394 | 8044 ft | 266 kts | 179° |
| 2026-05-04 12:00 | 28.25604 | -13.61665 | 7861 ft | 251 kts | 207° |
| 2026-05-04 12:00 | 28.24210 | -13.62738 | 7689 ft | 238 kts | 230° |
| 2026-05-04 12:00 | 28.23282 | -13.64258 | 7405 ft | 235 kts | 249° |
| 2026-05-04 12:01 | 28.22830 | -13.66032 | 7112 ft | 234 kts | 260° |
| 2026-05-04 12:01 | 28.22543 | -13.67844 | 6864 ft | 233 kts | 262° |
| 2026-05-04 12:02 | 28.20872 | -13.78810 | 4652 ft | 249 kts | 262° |
| 2026-05-04 12:03 | 28.20563 | -13.80771 | 4043 ft | 257 kts | 262° |
| 2026-05-04 12:03 | 28.20336 | -13.82749 | 3958 ft | 245 kts | 276° |
| 2026-05-04 12:03 | 28.20810 | -13.84510 | 3941 ft | 229 kts | 303° |
| 2026-05-04 12:03 | 28.21786 | -13.85897 | 3757 ft | 223 kts | 318° |
| 2026-05-04 12:04 | 28.23025 | -13.86883 | 3541 ft | 216 kts | 347° |
| 2026-05-04 12:04 | 28.24477 | -13.87015 | 3424 ft | 205 kts | 1° |
| 2026-05-04 12:04 | 28.25881 | -13.87008 | 3220 ft | 198 kts | 3° |
| 2026-05-04 12:04 | 28.27226 | -13.86974 | 3059 ft | 189 kts | 3° |
| 2026-05-04 12:05 | 28.28508 | -13.86933 | 2883 ft | 181 kts | 4° |
| 2026-05-04 12:05 | 28.29778 | -13.86890 | 2754 ft | 182 kts | 4° |
| 2026-05-04 12:05 | 28.31035 | -13.86848 | 2629 ft | 184 kts | 4° |
| 2026-05-04 12:05 | 28.32318 | -13.86805 | 2387 ft | 183 kts | 4° |
| 2026-05-04 12:06 | 28.33585 | -13.86763 | 2145 ft | 181 kts | 4° |
| 2026-05-04 12:06 | 28.34826 | -13.86723 | 1916 ft | 177 kts | 5° |
| 2026-05-04 12:06 | 28.36041 | -13.86683 | 1692 ft | 172 kts | 4° |
| 2026-05-04 12:06 | 28.37199 | -13.86645 | 1470 ft | 160 kts | 5° |
| 2026-05-04 12:07 | 28.38278 | -13.86517 | 1277 ft | 156 kts | 15° |
| 2026-05-04 12:07 | 28.39346 | -13.86594 | 1045 ft | 154 kts | 349° |
| 2026-05-04 12:07 | 28.40343 | -13.86678 | 846 ft | 136 kts | 17° |
| 2026-05-04 12:07 | 28.41286 | -13.86498 | 655 ft | 142 kts | 5° |
| 2026-05-04 12:08 | 28.42256 | -13.86481 | 489 ft | 136 kts | 5° |
| 2026-05-04 12:08 | 28.43217 | -13.86455 | 235 ft | 139 kts | 4° |
| 2026-05-04 12:08 | 28.44160 | -13.86415 | 55 ft | 130 kts | 2° |
| 2026-05-04 12:08 | 28.44953 | -13.86387 | 74 ft | 94 kts | 2° |
| 2026-05-04 12:09 | 28.45446 | -13.86370 | 81 ft | 52 kts | 1° |
| 2026-05-04 12:09 | 28.45686 | -13.86363 | 86 ft | 30 kts | 1° |
| 2026-05-04 12:09 | 28.45878 | -13.86362 | 89 ft | 26 kts | 353° |
| 2026-05-04 12:09 | 28.46036 | -13.86412 | 92 ft | 21 kts | 335° |
| 2026-05-04 12:10 | 28.46111 | -13.86456 | 94 ft | 16 kts | 333° |
| 2026-05-04 12:10 | 28.46115 | -13.86540 | 98 ft | 14 kts | 197° |
| 2026-05-04 12:10 | 28.46029 | -13.86546 | 97 ft | 10 kts | 181° |
| 2026-05-04 12:10 | 28.45960 | -13.86548 | 98 ft | 10 kts | 181° |
| 2026-05-04 12:11 | 28.45893 | -13.86550 | 99 ft | 10 kts | 181° |
| 2026-05-04 12:11 | 28.45827 | -13.86552 | 97 ft | 9 kts | 181° |
| 2026-05-04 12:11 | 28.45761 | -13.86554 | 98 ft | 9 kts | 182° |
| 2026-05-04 12:11 | 28.45693 | -13.86556 | 97 ft | 10 kts | 182° |
| 2026-05-04 12:12 | 28.45625 | -13.86559 | 96 ft | 7 kts | 181° |
| 2026-05-04 12:12 | 28.45583 | -13.86560 | 95 ft | 5 kts | 185° |
| 2026-05-04 12:12 | 28.45574 | -13.86598 | 97 ft | 6 kts | 273° |
| 2026-05-04 12:12 | 28.45575 | -13.86633 | 97 ft | 2 kts | 271° |
| 2026-05-04 12:13 | 28.45575 | -13.86648 | 97 ft | 1 kts | 271° |
| 2026-05-04 12:14 | 28.45575 | -13.86649 | 97 ft | 0 kts | 271° |